FFT1588 KDEN-KTUL
Flight info
| Callsign | FFT1588 |
|---|---|
| Flight time | 1h 8m |
| Altitude | 39000 |
| Route | EPKEE7 GAETR KK51A TUL |
| Aircraft | A20N/M-SDE2E3FGHIRWXY/LB1 |
Departure
| Time | 2026-05-07 00:11 |
|---|---|
| Airport | Denver International Airport (KDEN) |
Arrival
| Time | 2026-05-07 01:20 |
|---|---|
| Airport | Tulsa International Airport (KTUL) |
| Time | Latitude | Longitude | Altitude | Speed | Heading |
|---|---|---|---|---|---|
| 2026-05-06 23:52 | 39.85468 | -104.66912 | 5381 ft | 0 kts | 180° |
| 2026-05-06 23:57 | 39.85466 | -104.66912 | 5383 ft | 0 kts | 180° |
| 2026-05-07 00:01 | 39.85470 | -104.66912 | 5383 ft | 3 kts | 180° |
| 2026-05-07 00:01 | 39.85497 | -104.66912 | 5381 ft | 4 kts | 180° |
| 2026-05-07 00:02 | 39.85518 | -104.66912 | 5381 ft | 0 kts | 180° |
| 2026-05-07 00:05 | 39.85518 | -104.66911 | 5379 ft | 1 kts | 178° |
| 2026-05-07 00:05 | 39.85513 | -104.66888 | 5383 ft | 6 kts | 83° |
| 2026-05-07 00:06 | 39.85578 | -104.66795 | 5382 ft | 15 kts | 20° |
| 2026-05-07 00:06 | 39.85586 | -104.66686 | 5382 ft | 17 kts | 92° |
| 2026-05-07 00:06 | 39.85585 | -104.66505 | 5383 ft | 20 kts | 90° |
| 2026-05-07 00:06 | 39.85584 | -104.66317 | 5391 ft | 15 kts | 90° |
| 2026-05-07 00:07 | 39.85647 | -104.66235 | 5389 ft | 19 kts | 359° |
| 2026-05-07 00:07 | 39.85821 | -104.66236 | 5387 ft | 30 kts | 360° |
| 2026-05-07 00:07 | 39.86027 | -104.66229 | 5386 ft | 27 kts | 1° |
| 2026-05-07 00:07 | 39.86199 | -104.66227 | 5382 ft | 24 kts | 0° |
| 2026-05-07 00:08 | 39.86384 | -104.66226 | 5382 ft | 31 kts | 0° |
| 2026-05-07 00:08 | 39.86623 | -104.66224 | 5377 ft | 32 kts | 360° |
| 2026-05-07 00:08 | 39.86846 | -104.66223 | 5370 ft | 30 kts | 2° |
| 2026-05-07 00:08 | 39.87040 | -104.66217 | 5367 ft | 21 kts | 0° |
| 2026-05-07 00:09 | 39.87196 | -104.66217 | 5364 ft | 26 kts | 0° |
| 2026-05-07 00:09 | 39.87369 | -104.66214 | 5361 ft | 23 kts | 1° |
| 2026-05-07 00:09 | 39.87519 | -104.66210 | 5359 ft | 20 kts | 0° |
| 2026-05-07 00:09 | 39.87615 | -104.66209 | 5361 ft | 12 kts | 0° |
| 2026-05-07 00:10 | 39.87652 | -104.66209 | 5362 ft | 10 kts | 0° |
| 2026-05-07 00:10 | 39.87760 | -104.66163 | 5360 ft | 22 kts | 64° |
| 2026-05-07 00:10 | 39.87757 | -104.66062 | 5358 ft | 12 kts | 96° |
| 2026-05-07 00:10 | 39.87753 | -104.65871 | 5356 ft | 52 kts | 92° |
| 2026-05-07 00:11 | 39.87748 | -104.65106 | 5349 ft | 114 kts | 90° |
| 2026-05-07 00:11 | 39.87743 | -104.63850 | 5343 ft | 161 kts | 91° |
| 2026-05-07 00:11 | 39.87755 | -104.62369 | 5753 ft | 172 kts | 92° |
| 2026-05-07 00:11 | 39.87762 | -104.60776 | 6337 ft | 181 kts | 92° |
| 2026-05-07 00:12 | 39.87672 | -104.59048 | 6685 ft | 202 kts | 103° |
| 2026-05-07 00:12 | 39.87189 | -104.57244 | 6925 ft | 222 kts | 117° |
| 2026-05-07 00:12 | 39.86485 | -104.55323 | 7107 ft | 247 kts | 116° |
| 2026-05-07 00:12 | 39.85740 | -104.53204 | 7358 ft | 270 kts | 115° |
| 2026-05-07 00:13 | 39.84948 | -104.50892 | 7843 ft | 285 kts | 114° |
| 2026-05-07 00:13 | 39.84137 | -104.48514 | 8687 ft | 290 kts | 114° |
| 2026-05-07 00:13 | 39.83307 | -104.46084 | 9615 ft | 297 kts | 113° |
| 2026-05-07 00:13 | 39.82450 | -104.43581 | 10417 ft | 312 kts | 113° |
| 2026-05-07 00:14 | 39.81534 | -104.40901 | 10842 ft | 337 kts | 113° |
| 2026-05-07 00:14 | 39.80547 | -104.38022 | 11305 ft | 357 kts | 113° |
| 2026-05-07 00:14 | 39.79518 | -104.35052 | 12134 ft | 364 kts | 113° |
| 2026-05-07 00:14 | 39.78478 | -104.32063 | 12949 ft | 372 kts | 114° |
| 2026-05-07 00:15 | 39.77393 | -104.28952 | 13777 ft | 379 kts | 113° |
| 2026-05-07 00:15 | 39.76297 | -104.25806 | 14571 ft | 384 kts | 113° |
| 2026-05-07 00:15 | 39.75192 | -104.22638 | 15425 ft | 386 kts | 112° |
| 2026-05-07 00:15 | 39.74075 | -104.19435 | 16214 ft | 392 kts | 112° |
| 2026-05-07 00:16 | 39.72945 | -104.16195 | 17017 ft | 395 kts | 112° |
| 2026-05-07 00:16 | 39.71804 | -104.12934 | 17821 ft | 399 kts | 112° |
| 2026-05-07 00:16 | 39.70640 | -104.09638 | 18588 ft | 403 kts | 112° |
| 2026-05-07 00:16 | 39.69463 | -104.06322 | 19318 ft | 405 kts | 111° |
| 2026-05-07 00:17 | 39.68282 | -104.03000 | 20090 ft | 406 kts | 111° |
| 2026-05-07 00:17 | 39.67093 | -103.99654 | 20819 ft | 409 kts | 110° |
| 2026-05-07 00:17 | 39.65898 | -103.96293 | 21555 ft | 411 kts | 110° |
| 2026-05-07 00:17 | 39.64597 | -103.92964 | 22282 ft | 416 kts | 112° |
| 2026-05-07 00:18 | 39.63240 | -103.89663 | 22981 ft | 419 kts | 112° |
| 2026-05-07 00:18 | 39.61868 | -103.86319 | 23675 ft | 422 kts | 112° |
| 2026-05-07 00:18 | 39.60485 | -103.82938 | 24188 ft | 428 kts | 112° |
| 2026-05-07 00:18 | 39.59155 | -103.79481 | 24701 ft | 427 kts | 107° |
| 2026-05-07 00:19 | 39.58106 | -103.75891 | 25256 ft | 427 kts | 103° |
| 2026-05-07 00:19 | 39.57088 | -103.72255 | 25785 ft | 430 kts | 103° |
| 2026-05-07 00:19 | 39.56060 | -103.68599 | 26313 ft | 433 kts | 103° |
| 2026-05-07 00:19 | 39.55022 | -103.64923 | 26825 ft | 436 kts | 103° |
| 2026-05-07 00:20 | 39.53973 | -103.61217 | 27318 ft | 439 kts | 103° |
| 2026-05-07 00:20 | 39.52920 | -103.57508 | 27718 ft | 439 kts | 103° |
| 2026-05-07 00:20 | 39.51875 | -103.53819 | 28085 ft | 444 kts | 103° |
| 2026-05-07 00:20 | 39.50810 | -103.50098 | 28143 ft | 427 kts | 102° |
| 2026-05-07 00:21 | 39.49786 | -103.46491 | 27958 ft | 441 kts | 103° |
| 2026-05-07 00:21 | 39.48722 | -103.42724 | 28259 ft | 447 kts | 103° |
| 2026-05-07 00:21 | 39.47645 | -103.38943 | 28759 ft | 449 kts | 103° |
| 2026-05-07 00:21 | 39.46558 | -103.35136 | 29184 ft | 452 kts | 103° |
| 2026-05-07 00:22 | 39.45464 | -103.31312 | 29626 ft | 454 kts | 103° |
| 2026-05-07 00:22 | 39.44361 | -103.27470 | 30055 ft | 457 kts | 103° |
| 2026-05-07 00:22 | 39.43253 | -103.23609 | 30433 ft | 460 kts | 103° |
| 2026-05-07 00:22 | 39.42134 | -103.19713 | 30747 ft | 464 kts | 103° |
| 2026-05-07 00:23 | 39.41005 | -103.15786 | 31064 ft | 467 kts | 104° |
| 2026-05-07 00:23 | 39.39869 | -103.11836 | 31420 ft | 471 kts | 104° |
| 2026-05-07 00:23 | 39.38722 | -103.07852 | 31724 ft | 474 kts | 105° |
| 2026-05-07 00:23 | 39.37567 | -103.03854 | 32140 ft | 475 kts | 105° |
| 2026-05-07 00:24 | 39.36411 | -102.99859 | 32541 ft | 475 kts | 105° |
| 2026-05-07 00:24 | 39.35321 | -102.95824 | 32948 ft | 473 kts | 101° |
| 2026-05-07 00:24 | 39.34584 | -102.91696 | 33318 ft | 470 kts | 95° |
| 2026-05-07 00:24 | 39.34087 | -102.87524 | 33681 ft | 471 kts | 94° |
| 2026-05-07 00:25 | 39.33587 | -102.83337 | 34042 ft | 472 kts | 95° |
| 2026-05-07 00:25 | 39.33080 | -102.79141 | 34352 ft | 473 kts | 95° |
| 2026-05-07 00:25 | 39.32569 | -102.74938 | 34581 ft | 477 kts | 96° |
| 2026-05-07 00:25 | 39.32049 | -102.70669 | 34624 ft | 484 kts | 96° |
| 2026-05-07 00:26 | 39.31520 | -102.66359 | 34883 ft | 486 kts | 97° |
| 2026-05-07 00:26 | 39.30986 | -102.62049 | 35175 ft | 487 kts | 97° |
| 2026-05-07 00:26 | 39.30450 | -102.57728 | 35441 ft | 488 kts | 97° |
| 2026-05-07 00:26 | 39.29913 | -102.53411 | 35713 ft | 489 kts | 97° |
| 2026-05-07 00:27 | 39.29369 | -102.49060 | 35971 ft | 490 kts | 97° |
| 2026-05-07 00:27 | 39.28825 | -102.44717 | 36231 ft | 491 kts | 97° |
| 2026-05-07 00:27 | 39.28278 | -102.40362 | 36508 ft | 492 kts | 98° |
| 2026-05-07 00:27 | 39.27728 | -102.35979 | 36628 ft | 497 kts | 98° |
| 2026-05-07 00:28 | 39.27171 | -102.31575 | 36863 ft | 498 kts | 98° |
| 2026-05-07 00:28 | 39.26612 | -102.27169 | 37123 ft | 498 kts | 98° |
| 2026-05-07 00:28 | 39.26050 | -102.22753 | 37366 ft | 499 kts | 99° |
| 2026-05-07 00:28 | 39.25487 | -102.18341 | 37610 ft | 500 kts | 99° |
| 2026-05-07 00:29 | 39.24920 | -102.13910 | 37844 ft | 500 kts | 99° |
| 2026-05-07 00:29 | 39.24352 | -102.09484 | 38070 ft | 501 kts | 99° |
| 2026-05-07 00:30 | 39.22627 | -101.96130 | 38636 ft | 505 kts | 99° |
| 2026-05-07 00:30 | 39.22047 | -101.91669 | 38842 ft | 506 kts | 100° |
| 2026-05-07 00:30 | 39.21465 | -101.87203 | 39023 ft | 506 kts | 100° |
| 2026-05-07 00:30 | 39.20879 | -101.82723 | 39146 ft | 506 kts | 100° |
| 2026-05-07 00:31 | 39.19705 | -101.73782 | 39157 ft | 507 kts | 100° |
| 2026-05-07 00:31 | 39.18520 | -101.64821 | 39158 ft | 508 kts | 101° |
| 2026-05-07 00:32 | 39.17324 | -101.55830 | 39158 ft | 509 kts | 101° |
| 2026-05-07 00:32 | 39.16122 | -101.46850 | 39161 ft | 508 kts | 101° |
| 2026-05-07 00:33 | 39.14920 | -101.37931 | 39169 ft | 508 kts | 101° |
| 2026-05-07 00:33 | 39.13704 | -101.28960 | 39177 ft | 509 kts | 101° |
| 2026-05-07 00:34 | 39.12480 | -101.19978 | 39166 ft | 509 kts | 101° |
| 2026-05-07 00:34 | 39.11249 | -101.11002 | 39165 ft | 509 kts | 101° |
| 2026-05-07 00:35 | 39.10212 | -101.03479 | 39165 ft | 509 kts | 101° |
| 2026-05-07 00:35 | 39.08748 | -100.94574 | 39162 ft | 507 kts | 110° |
| 2026-05-07 00:36 | 39.05796 | -100.86423 | 39145 ft | 499 kts | 127° |
| 2026-05-07 00:36 | 39.01565 | -100.79438 | 39160 ft | 494 kts | 134° |
| 2026-05-07 00:37 | 38.97183 | -100.72615 | 39166 ft | 495 kts | 134° |
| 2026-05-07 00:37 | 38.92823 | -100.65827 | 39176 ft | 496 kts | 134° |
| 2026-05-07 00:38 | 38.88418 | -100.58992 | 39181 ft | 497 kts | 134° |
| 2026-05-07 00:38 | 38.84019 | -100.52173 | 39178 ft | 493 kts | 135° |
| 2026-05-07 00:39 | 38.79637 | -100.45407 | 39179 ft | 493 kts | 135° |
| 2026-05-07 00:39 | 38.75245 | -100.38641 | 39179 ft | 494 kts | 135° |
| 2026-05-07 00:40 | 38.70853 | -100.31887 | 39178 ft | 493 kts | 135° |
| 2026-05-07 00:40 | 38.66456 | -100.25137 | 39145 ft | 493 kts | 136° |
| 2026-05-07 00:41 | 38.62065 | -100.18403 | 39172 ft | 493 kts | 136° |
| 2026-05-07 00:41 | 38.57664 | -100.11677 | 39169 ft | 493 kts | 137° |
| 2026-05-07 00:42 | 38.53253 | -100.04950 | 39172 ft | 494 kts | 137° |
| 2026-05-07 00:42 | 38.48915 | -99.98127 | 39174 ft | 498 kts | 132° |
| 2026-05-07 00:43 | 38.44864 | -99.90954 | 39159 ft | 498 kts | 133° |
| 2026-05-07 00:43 | 38.40805 | -99.83775 | 39164 ft | 499 kts | 133° |
| 2026-05-07 00:44 | 38.36735 | -99.76598 | 39161 ft | 500 kts | 133° |
| 2026-05-07 00:44 | 38.32649 | -99.69415 | 39166 ft | 501 kts | 133° |
| 2026-05-07 00:45 | 38.28551 | -99.62235 | 39171 ft | 502 kts | 133° |
| 2026-05-07 00:45 | 38.24445 | -99.55051 | 39164 ft | 502 kts | 134° |
| 2026-05-07 00:46 | 38.20359 | -99.47924 | 39168 ft | 502 kts | 134° |
| 2026-05-07 00:46 | 38.16238 | -99.40748 | 39171 ft | 503 kts | 134° |
| 2026-05-07 00:47 | 38.12105 | -99.33573 | 39166 ft | 504 kts | 134° |
| 2026-05-07 00:47 | 38.07962 | -99.26392 | 39168 ft | 504 kts | 135° |
| 2026-05-07 00:48 | 38.03813 | -99.19218 | 39166 ft | 504 kts | 135° |
| 2026-05-07 00:48 | 37.99659 | -99.12049 | 39165 ft | 504 kts | 135° |
| 2026-05-07 00:49 | 37.95500 | -99.04885 | 39174 ft | 505 kts | 135° |
| 2026-05-07 00:49 | 37.91335 | -98.97730 | 39167 ft | 504 kts | 135° |
| 2026-05-07 00:50 | 37.87145 | -98.90620 | 39163 ft | 502 kts | 137° |
| 2026-05-07 00:50 | 37.82751 | -98.83811 | 39156 ft | 499 kts | 139° |
| 2026-05-07 00:51 | 37.78374 | -98.76991 | 39157 ft | 499 kts | 139° |
| 2026-05-07 00:51 | 37.74004 | -98.70174 | 39158 ft | 499 kts | 139° |
| 2026-05-07 00:52 | 37.69660 | -98.63319 | 39153 ft | 500 kts | 139° |
| 2026-05-07 00:52 | 37.65316 | -98.56473 | 39150 ft | 498 kts | 141° |
| 2026-05-07 00:53 | 37.62996 | -98.53292 | 39143 ft | 487 kts | 147° |
| 2026-05-07 00:53 | 37.60555 | -98.50353 | 39153 ft | 484 kts | 148° |
| 2026-05-07 00:53 | 37.55653 | -98.44534 | 39146 ft | 484 kts | 149° |
| 2026-05-07 00:54 | 37.50747 | -98.38714 | 39139 ft | 484 kts | 148° |
| 2026-05-07 00:54 | 37.45847 | -98.32897 | 39140 ft | 485 kts | 149° |
| 2026-05-07 00:55 | 37.41004 | -98.27050 | 39132 ft | 486 kts | 149° |
| 2026-05-07 00:55 | 37.36174 | -98.20994 | 39137 ft | 487 kts | 148° |
| 2026-05-07 00:56 | 37.31382 | -98.14968 | 39145 ft | 488 kts | 148° |
| 2026-05-07 00:56 | 37.26621 | -98.08978 | 39137 ft | 488 kts | 148° |
| 2026-05-07 00:57 | 37.21825 | -98.02945 | 39134 ft | 488 kts | 148° |
| 2026-05-07 00:57 | 37.17060 | -97.96857 | 39113 ft | 490 kts | 148° |
| 2026-05-07 00:58 | 37.12353 | -97.90638 | 39110 ft | 492 kts | 148° |
| 2026-05-07 00:58 | 37.07647 | -97.84393 | 39113 ft | 494 kts | 148° |
| 2026-05-07 00:59 | 37.00570 | -97.75004 | 39118 ft | 495 kts | 148° |
| 2026-05-07 01:00 | 36.95855 | -97.68713 | 39104 ft | 496 kts | 148° |
| 2026-05-07 01:00 | 36.91156 | -97.62398 | 39113 ft | 497 kts | 148° |
| 2026-05-07 01:01 | 36.86467 | -97.56043 | 39102 ft | 498 kts | 148° |
| 2026-05-07 01:01 | 36.81783 | -97.49650 | 39129 ft | 499 kts | 148° |
| 2026-05-07 01:02 | 36.77097 | -97.43254 | 39142 ft | 500 kts | 148° |
| 2026-05-07 01:02 | 36.72434 | -97.36821 | 39129 ft | 499 kts | 148° |
| 2026-05-07 01:03 | 36.67807 | -97.30378 | 39128 ft | 499 kts | 148° |
| 2026-05-07 01:03 | 36.63211 | -97.23976 | 39122 ft | 499 kts | 148° |
| 2026-05-07 01:04 | 36.58590 | -97.17532 | 39114 ft | 499 kts | 148° |
| 2026-05-07 01:04 | 36.53970 | -97.11082 | 39068 ft | 500 kts | 148° |
| 2026-05-07 01:04 | 36.51665 | -97.07848 | 38774 ft | 500 kts | 148° |
| 2026-05-07 01:05 | 36.49345 | -97.04556 | 38397 ft | 498 kts | 148° |
| 2026-05-07 01:05 | 36.47100 | -97.01360 | 38024 ft | 497 kts | 148° |
| 2026-05-07 01:05 | 36.44826 | -96.98130 | 37658 ft | 498 kts | 148° |
| 2026-05-07 01:05 | 36.42509 | -96.94842 | 37290 ft | 499 kts | 148° |
| 2026-05-07 01:06 | 36.40250 | -96.91652 | 36937 ft | 499 kts | 148° |
| 2026-05-07 01:06 | 36.37953 | -96.88416 | 36588 ft | 499 kts | 148° |
| 2026-05-07 01:06 | 36.35653 | -96.85184 | 36238 ft | 499 kts | 148° |
| 2026-05-07 01:06 | 36.33360 | -96.81958 | 35883 ft | 499 kts | 148° |
| 2026-05-07 01:07 | 36.31074 | -96.78732 | 35456 ft | 496 kts | 148° |
| 2026-05-07 01:07 | 36.28791 | -96.75522 | 34907 ft | 498 kts | 147° |
| 2026-05-07 01:07 | 36.26486 | -96.72306 | 34318 ft | 500 kts | 147° |
| 2026-05-07 01:07 | 36.24174 | -96.69096 | 33597 ft | 499 kts | 147° |
| 2026-05-07 01:08 | 36.21856 | -96.65901 | 32850 ft | 500 kts | 147° |
| 2026-05-07 01:08 | 36.19511 | -96.62704 | 32121 ft | 502 kts | 147° |
| 2026-05-07 01:08 | 36.17155 | -96.59526 | 31328 ft | 503 kts | 147° |
| 2026-05-07 01:08 | 36.14762 | -96.56337 | 30525 ft | 505 kts | 147° |
| 2026-05-07 01:09 | 36.12372 | -96.53182 | 29656 ft | 500 kts | 147° |
| 2026-05-07 01:09 | 36.10002 | -96.50072 | 28738 ft | 493 kts | 147° |
| 2026-05-07 01:09 | 36.07665 | -96.47020 | 27818 ft | 484 kts | 147° |
| 2026-05-07 01:09 | 36.05358 | -96.44034 | 26885 ft | 476 kts | 147° |
| 2026-05-07 01:10 | 36.03083 | -96.41117 | 26034 ft | 468 kts | 147° |
| 2026-05-07 01:10 | 36.00840 | -96.38245 | 25216 ft | 461 kts | 147° |
| 2026-05-07 01:10 | 35.98731 | -96.35251 | 24407 ft | 469 kts | 137° |
| 2026-05-07 01:10 | 35.96970 | -96.31827 | 23603 ft | 473 kts | 132° |
| 2026-05-07 01:11 | 35.95263 | -96.28374 | 22521 ft | 469 kts | 132° |
| 2026-05-07 01:11 | 35.93571 | -96.25020 | 21480 ft | 465 kts | 132° |
| 2026-05-07 01:11 | 35.91766 | -96.21698 | 20451 ft | 451 kts | 140° |
| 2026-05-07 01:11 | 35.89627 | -96.19104 | 19487 ft | 429 kts | 151° |
| 2026-05-07 01:12 | 35.87315 | -96.16836 | 18535 ft | 422 kts | 152° |
| 2026-05-07 01:12 | 35.85006 | -96.14637 | 17484 ft | 416 kts | 152° |
| 2026-05-07 01:12 | 35.82879 | -96.12189 | 16423 ft | 424 kts | 136° |
| 2026-05-07 01:12 | 35.81314 | -96.09078 | 15410 ft | 432 kts | 119° |
| 2026-05-07 01:13 | 35.80471 | -96.05527 | 14423 ft | 435 kts | 102° |
| 2026-05-07 01:13 | 35.80432 | -96.01812 | 13468 ft | 433 kts | 84° |
| 2026-05-07 01:13 | 35.80868 | -95.98183 | 12544 ft | 424 kts | 82° |
| 2026-05-07 01:13 | 35.81473 | -95.94661 | 11567 ft | 417 kts | 70° |
| 2026-05-07 01:14 | 35.82791 | -95.91551 | 10656 ft | 405 kts | 50° |
| 2026-05-07 01:14 | 35.84650 | -95.89026 | 9818 ft | 392 kts | 42° |
| 2026-05-07 01:14 | 35.86546 | -95.86668 | 8913 ft | 382 kts | 41° |
| 2026-05-07 01:14 | 35.88635 | -95.84775 | 8030 ft | 367 kts | 23° |
| 2026-05-07 01:15 | 35.91020 | -95.83911 | 7169 ft | 352 kts | 4° |
| 2026-05-07 01:15 | 35.93418 | -95.84082 | 6316 ft | 341 kts | 348° |
| 2026-05-07 01:15 | 35.95652 | -95.84911 | 5610 ft | 329 kts | 342° |
| 2026-05-07 01:15 | 35.97768 | -95.85829 | 4976 ft | 316 kts | 342° |
| 2026-05-07 01:16 | 35.99798 | -95.86739 | 4363 ft | 305 kts | 342° |
| 2026-05-07 01:16 | 36.01726 | -95.87623 | 4032 ft | 286 kts | 342° |
| 2026-05-07 01:16 | 36.03529 | -95.88455 | 3724 ft | 269 kts | 342° |
| 2026-05-07 01:16 | 36.05277 | -95.89084 | 3334 ft | 253 kts | 355° |
| 2026-05-07 01:17 | 36.06929 | -95.89141 | 2975 ft | 223 kts | 4° |
| 2026-05-07 01:17 | 36.08387 | -95.88991 | 2704 ft | 201 kts | 5° |
| 2026-05-07 01:17 | 36.09724 | -95.88912 | 2443 ft | 184 kts | 6° |
| 2026-05-07 01:17 | 36.10923 | -95.88828 | 2219 ft | 163 kts | 5° |
| 2026-05-07 01:18 | 36.11995 | -95.88758 | 2004 ft | 146 kts | 6° |
| 2026-05-07 01:18 | 36.12941 | -95.88695 | 1816 ft | 128 kts | 6° |
| 2026-05-07 01:18 | 36.13790 | -95.88637 | 1647 ft | 118 kts | 6° |
| 2026-05-07 01:18 | 36.14621 | -95.88577 | 1470 ft | 121 kts | 4° |
| 2026-05-07 01:19 | 36.15453 | -95.88521 | 1326 ft | 120 kts | 4° |
| 2026-05-07 01:19 | 36.16270 | -95.88469 | 1194 ft | 121 kts | 4° |
| 2026-05-07 01:19 | 36.17099 | -95.88422 | 1028 ft | 119 kts | 4° |
| 2026-05-07 01:19 | 36.17931 | -95.88369 | 847 ft | 123 kts | 5° |
| 2026-05-07 01:20 | 36.18801 | -95.88307 | 699 ft | 122 kts | 4° |
| 2026-05-07 01:20 | 36.19559 | -95.88255 | 670 ft | 81 kts | 3° |
| 2026-05-07 01:20 | 36.19876 | -95.88234 | 668 ft | 25 kts | 2° |
| 2026-05-07 01:20 | 36.20038 | -95.88274 | 667 ft | 25 kts | 333° |
| 2026-05-07 01:21 | 36.20157 | -95.88369 | 667 ft | 15 kts | 296° |
| 2026-05-07 01:21 | 36.20099 | -95.88440 | 667 ft | 14 kts | 198° |
| 2026-05-07 01:21 | 36.19994 | -95.88482 | 667 ft | 18 kts | 198° |
| 2026-05-07 01:21 | 36.19863 | -95.88534 | 667 ft | 19 kts | 199° |
| 2026-05-07 01:22 | 36.19747 | -95.88584 | 667 ft | 19 kts | 191° |
| 2026-05-07 01:22 | 36.19602 | -95.88591 | 670 ft | 22 kts | 179° |
| 2026-05-07 01:22 | 36.19465 | -95.88593 | 668 ft | 14 kts | 199° |
| 2026-05-07 01:22 | 36.19444 | -95.88663 | 667 ft | 15 kts | 269° |
| 2026-05-07 01:23 | 36.19443 | -95.88798 | 667 ft | 17 kts | 269° |
| 2026-05-07 01:23 | 36.19427 | -95.88899 | 666 ft | 11 kts | 229° |
| 2026-05-07 01:23 | 36.19359 | -95.88946 | 667 ft | 10 kts | 196° |
| 2026-05-07 01:23 | 36.19308 | -95.88937 | 667 ft | 6 kts | 168° |
| 2026-05-07 01:24 | 36.19290 | -95.88933 | 667 ft | 0 kts | 168° |